sensor_id;sensor_type;location;lat;lon;timestamp;pressure;altitude;pressure_sealevel;temperature;humidity
17309;BME280;8772;42.804;23.426;2023-06-26T00:00:46;72615.94;;;-140.58;100.00
17309;BME280;8772;42.804;23.426;2023-06-26T00:03:13;72624.13;;;-140.58;100.00
17309;BME280;8772;42.804;23.426;2023-06-26T00:05:40;72628.22;;;-140.58;100.00
17309;BME280;8772;42.804;23.426;2023-06-26T00:08:08;72622.06;;;-140.58;100.00
17309;BME280;8772;42.804;23.426;2023-06-26T00:10:35;72624.13;;;-140.58;100.00
17309;BME280;8772;42.804;23.426;2023-06-26T00:13:03;72620.03;;;-140.58;100.00
17309;BME280;8772;42.804;23.426;2023-06-26T00:15:30;72640.53;;;-140.58;100.00
17309;BME280;8772;42.804;23.426;2023-06-26T00:17:57;72626.19;;;-140.58;100.00
17309;BME280;8772;42.804;23.426;2023-06-26T00:20:24;72617.97;;;-140.58;100.00
17309;BME280;8772;42.804;23.426;2023-06-26T00:22:51;72611.81;;;-140.58;100.00
17309;BME280;8772;42.804;23.426;2023-06-26T00:25:19;72609.78;;;-140.58;100.00
17309;BME280;8772;42.804;23.426;2023-06-26T00:27:46;72611.81;;;-140.58;100.00
17309;BME280;8772;42.804;23.426;2023-06-26T00:30:15;72599.53;;;-140.58;100.00
17309;BME280;8772;42.804;23.426;2023-06-26T00:32:41;72591.31;;;-140.58;100.00
17309;BME280;8772;42.804;23.426;2023-06-26T00:35:08;72591.31;;;-140.58;100.00
17309;BME280;8772;42.804;23.426;2023-06-26T00:37:35;72587.22;;;-140.58;100.00
17309;BME280;8772;42.804;23.426;2023-06-26T00:40:02;72583.13;;;-140.58;100.00
17309;BME280;8772;42.804;23.426;2023-06-26T00:42:30;72605.66;;;-140.58;100.00
17309;BME280;8772;42.804;23.426;2023-06-26T00:44:57;72583.13;;;-140.58;100.00
17309;BME280;8772;42.804;23.426;2023-06-26T00:47:26;72583.13;;;-140.58;100.00
17309;BME280;8772;42.804;23.426;2023-06-26T00:49:54;72583.13;;;-140.58;100.00
17309;BME280;8772;42.804;23.426;2023-06-26T00:52:22;72576.97;;;-140.58;100.00
17309;BME280;8772;42.804;23.426;2023-06-26T00:54:49;72579.00;;;-140.58;100.00
17309;BME280;8772;42.804;23.426;2023-06-26T00:57:17;72572.84;;;-140.58;100.00
17309;BME280;8772;42.804;23.426;2023-06-26T00:59:44;72570.81;;;-140.58;100.00
17309;BME280;8772;42.804;23.426;2023-06-26T01:02:11;72581.06;;;-140.58;100.00
17309;BME280;8772;42.804;23.426;2023-06-26T01:08:04;72620.03;;;-140.58;100.00
17309;BME280;8772;42.804;23.426;2023-06-26T01:10:31;72624.13;;;-140.58;100.00
17309;BME280;8772;42.804;23.426;2023-06-26T01:28:07;72554.41;;;-140.58;97.93
17309;BME280;8772;42.804;23.426;2023-06-26T01:30:37;72595.41;;;-140.58;97.71
17309;BME280;8772;42.804;23.426;2023-06-26T01:33:05;72624.13;;;-140.58;99.81
17309;BME280;8772;42.804;23.426;2023-06-26T01:35:32;72620.03;;;-140.58;100.00
17309;BME280;8772;42.804;23.426;2023-06-26T01:38:12;72630.28;;;-140.58;100.00
17309;BME280;8772;42.804;23.426;2023-06-26T01:40:39;72630.28;;;-140.58;100.00
17309;BME280;8772;42.804;23.426;2023-06-26T01:43:15;72648.72;;;-140.58;100.00
17309;BME280;8772;42.804;23.426;2023-06-26T01:45:46;72642.59;;;-140.58;100.00
17309;BME280;8772;42.804;23.426;2023-06-26T01:48:16;72659.00;;;-140.58;100.00
17309;BME280;8772;42.804;23.426;2023-06-26T01:50:48;72685.66;;;-140.58;100.00
17309;BME280;8772;42.804;23.426;2023-06-26T01:53:18;72710.25;;;-140.58;100.00
17309;BME280;8772;42.804;23.426;2023-06-26T01:55:51;72712.31;;;-140.58;100.00
17309;BME280;8772;42.804;23.426;2023-06-26T01:58:23;72710.25;;;-140.58;100.00
17309;BME280;8772;42.804;23.426;2023-06-26T02:00:51;72726.66;;;-140.58;100.00
17309;BME280;8772;42.804;23.426;2023-06-26T02:03:19;72718.47;;;-140.58;100.00
17309;BME280;8772;42.804;23.426;2023-06-26T02:05:46;72724.63;;;-140.58;100.00
17309;BME280;8772;42.804;23.426;2023-06-26T02:08:14;72734.88;;;-140.58;100.00
17309;BME280;8772;42.804;23.426;2023-06-26T02:10:41;72730.78;;;-140.58;100.00
17309;BME280;8772;42.804;23.426;2023-06-26T02:13:08;72734.88;;;-140.58;100.00
17309;BME280;8772;42.804;23.426;2023-06-26T02:15:36;72757.44;;;-140.58;100.00
17309;BME280;8772;42.804;23.426;2023-06-26T02:18:03;72755.38;;;-140.58;100.00
17309;BME280;8772;42.804;23.426;2023-06-26T02:20:30;72763.59;;;-140.58;100.00
17309;BME280;8772;42.804;23.426;2023-06-26T02:22:58;72759.47;;;-140.58;100.00
17309;BME280;8772;42.804;23.426;2023-06-26T02:25:25;72775.88;;;-140.58;100.00
17309;BME280;8772;42.804;23.426;2023-06-26T02:27:52;72784.09;;;-140.58;100.00
17309;BME280;8772;42.804;23.426;2023-06-26T02:30:19;72792.28;;;-140.58;100.00
17309;BME280;8772;42.804;23.426;2023-06-26T02:32:47;72796.41;;;-140.58;100.00
17309;BME280;8772;42.804;23.426;2023-06-26T02:35:14;72788.19;;;-140.58;100.00
17309;BME280;8772;42.804;23.426;2023-06-26T02:37:41;72786.13;;;-140.58;100.00
17309;BME280;8772;42.804;23.426;2023-06-26T02:40:08;72780.00;;;-140.58;100.00
17309;BME280;8772;42.804;23.426;2023-06-26T02:42:35;72792.28;;;-140.58;100.00
17309;BME280;8772;42.804;23.426;2023-06-26T02:45:02;72792.28;;;-140.58;100.00
17309;BME280;8772;42.804;23.426;2023-06-26T02:47:29;72784.09;;;-140.58;100.00
17309;BME280;8772;42.804;23.426;2023-06-26T02:49:58;72802.53;;;-140.58;100.00
17309;BME280;8772;42.804;23.426;2023-06-26T02:52:24;72792.28;;;-140.58;100.00
17309;BME280;8772;42.804;23.426;2023-06-26T02:54:51;72804.59;;;-140.58;100.00
17309;BME280;8772;42.804;23.426;2023-06-26T02:57:18;72810.75;;;-140.58;100.00
17309;BME280;8772;42.804;23.426;2023-06-26T02:59:45;72816.91;;;-140.58;100.00
17309;BME280;8772;42.804;23.426;2023-06-26T03:02:12;72798.44;;;-140.58;100.00
17309;BME280;8772;42.804;23.426;2023-06-26T03:04:39;72792.28;;;-140.58;100.00
17309;BME280;8772;42.804;23.426;2023-06-26T03:07:07;72812.81;;;-140.58;100.00
17309;BME280;8772;42.804;23.426;2023-06-26T03:09:34;72816.91;;;-140.58;100.00
17309;BME280;8772;42.804;23.426;2023-06-26T03:12:01;72818.94;;;-140.58;100.00
17309;BME280;8772;42.804;23.426;2023-06-26T03:14:28;72808.69;;;-140.58;100.00
17309;BME280;8772;42.804;23.426;2023-06-26T03:16:55;72802.53;;;-140.58;100.00
17309;BME280;8772;42.804;23.426;2023-06-26T03:19:24;72800.50;;;-140.58;100.00
17309;BME280;8772;42.804;23.426;2023-06-26T03:21:51;72796.41;;;-140.58;100.00
17309;BME280;8772;42.804;23.426;2023-06-26T03:24:19;72804.59;;;-140.58;100.00
17309;BME280;8772;42.804;23.426;2023-06-26T03:26:46;72810.75;;;-140.58;100.00
17309;BME280;8772;42.804;23.426;2023-06-26T03:29:13;72794.34;;;-140.58;100.00
17309;BME280;8772;42.804;23.426;2023-06-26T03:31:40;72798.44;;;-140.58;100.00
17309;BME280;8772;42.804;23.426;2023-06-26T03:34:07;72806.66;;;-140.58;100.00
17309;BME280;8772;42.804;23.426;2023-06-26T03:36:34;72812.81;;;-140.58;100.00
17309;BME280;8772;42.804;23.426;2023-06-26T03:39:01;72796.41;;;-140.58;100.00
17309;BME280;8772;42.804;23.426;2023-06-26T03:41:30;72804.59;;;-140.58;100.00
17309;BME280;8772;42.804;23.426;2023-06-26T03:43:57;72818.94;;;-140.58;100.00
17309;BME280;8772;42.804;23.426;2023-06-26T03:46:25;72808.69;;;-140.58;100.00
17309;BME280;8772;42.804;23.426;2023-06-26T03:48:52;72825.09;;;-140.58;100.00
17309;BME280;8772;42.804;23.426;2023-06-26T03:51:19;72833.31;;;-140.58;100.00
17309;BME280;8772;42.804;23.426;2023-06-26T03:53:46;72845.63;;;-140.58;100.00
17309;BME280;8772;42.804;23.426;2023-06-26T03:56:13;72866.13;;;-140.58;100.00
17309;BME280;8772;42.804;23.426;2023-06-26T03:58:41;72853.81;;;-140.58;100.00
17309;BME280;8772;42.804;23.426;2023-06-26T04:01:08;72855.88;;;-140.58;100.00
17309;BME280;8772;42.804;23.426;2023-06-26T04:03:35;72841.50;;;-140.58;100.00
17309;BME280;8772;42.804;23.426;2023-06-26T04:06:02;72816.91;;;-140.58;100.00
17309;BME280;8772;42.804;23.426;2023-06-26T04:08:29;72808.69;;;-140.58;100.00
17309;BME280;8772;42.804;23.426;2023-06-26T04:10:56;72804.59;;;-140.58;100.00
17309;BME280;8772;42.804;23.426;2023-06-26T04:13:24;72786.13;;;-140.58;100.00
17309;BME280;8772;42.804;23.426;2023-06-26T04:15:52;72777.94;;;-140.58;100.00
17309;BME280;8772;42.804;23.426;2023-06-26T04:18:19;72773.84;;;-140.58;100.00
17309;BME280;8772;42.804;23.426;2023-06-26T04:21:04;72767.69;;;-140.58;100.00
17309;BME280;8772;42.804;23.426;2023-06-26T04:23:32;72771.78;;;-140.58;100.00
17309;BME280;8772;42.804;23.426;2023-06-26T04:25:59;72751.28;;;-140.58;100.00
17309;BME280;8772;42.804;23.426;2023-06-26T04:28:28;72747.19;;;-140.58;100.00
17309;BME280;8772;42.804;23.426;2023-06-26T04:30:56;72736.91;;;-140.58;100.00
17309;BME280;8772;42.804;23.426;2023-06-26T04:33:23;72720.50;;;-140.58;100.00
17309;BME280;8772;42.804;23.426;2023-06-26T04:35:51;72710.25;;;-140.58;100.00
17309;BME280;8772;42.804;23.426;2023-06-26T04:38:19;72704.09;;;-140.58;100.00
17309;BME280;8772;42.804;23.426;2023-06-26T04:40:47;72695.91;;;-140.58;100.00
17309;BME280;8772;42.804;23.426;2023-06-26T04:43:14;72685.66;;;-140.58;100.00
17309;BME280;8772;42.804;23.426;2023-06-26T04:45:41;72669.25;;;-140.58;100.00
17309;BME280;8772;42.804;23.426;2023-06-26T04:48:09;72656.94;;;-140.58;100.00
17309;BME280;8772;42.804;23.426;2023-06-26T04:50:36;72642.59;;;-140.58;100.00
17309;BME280;8772;42.804;23.426;2023-06-26T04:53:02;72628.22;;;-140.58;100.00
17309;BME280;8772;42.804;23.426;2023-06-26T04:55:29;72613.88;;;-140.58;100.00
17309;BME280;8772;42.804;23.426;2023-06-26T04:57:56;72595.41;;;-140.58;100.00
17309;BME280;8772;42.804;23.426;2023-06-26T05:00:23;72585.16;;;-140.58;100.00
17309;BME280;8772;42.804;23.426;2023-06-26T05:02:50;72570.81;;;-140.58;100.00
17309;BME280;8772;42.804;23.426;2023-06-26T05:05:27;72564.66;;;-140.58;100.00
17309;BME280;8772;42.804;23.426;2023-06-26T05:07:55;72560.56;;;-140.58;100.00
17309;BME280;8772;42.804;23.426;2023-06-26T05:10:22;72558.50;;;-140.58;100.00
17309;BME280;8772;42.804;23.426;2023-06-26T05:12:49;72550.31;;;-140.58;100.00
17309;BME280;8772;42.804;23.426;2023-06-26T05:15:16;72542.09;;;-140.58;100.00
17309;BME280;8772;42.804;23.426;2023-06-26T05:17:43;72542.09;;;-140.58;100.00
17309;BME280;8772;42.804;23.426;2023-06-26T05:20:11;72538.00;;;-140.58;100.00
17309;BME280;8772;42.804;23.426;2023-06-26T05:22:40;72533.91;;;-140.58;100.00
17309;BME280;8772;42.804;23.426;2023-06-26T05:25:09;72525.69;;;-140.58;100.00
17309;BME280;8772;42.804;23.426;2023-06-26T05:27:37;72525.69;;;-140.58;100.00
17309;BME280;8772;42.804;23.426;2023-06-26T05:30:05;72519.53;;;-140.58;100.00
17309;BME280;8772;42.804;23.426;2023-06-26T05:32:34;72517.50;;;-140.58;98.65
17309;BME280;8772;42.804;23.426;2023-06-26T05:35:02;72513.38;;;-140.58;96.86
17309;BME280;8772;42.804;23.426;2023-06-26T05:37:31;72511.34;;;-140.58;97.75
17309;BME280;8772;42.804;23.426;2023-06-26T05:39:59;72501.09;;;-140.58;99.45
17309;BME280;8772;42.804;23.426;2023-06-26T05:42:27;72499.03;;;-140.58;99.11
17309;BME280;8772;42.804;23.426;2023-06-26T05:44:54;72492.88;;;-140.58;99.45
17309;BME280;8772;42.804;23.426;2023-06-26T05:47:21;72499.03;;;-140.58;98.83
17309;BME280;8772;42.804;23.426;2023-06-26T05:49:48;72484.69;;;-140.58;97.88
17309;BME280;8772;42.804;23.426;2023-06-26T05:52:15;72476.47;;;-140.58;96.93
17309;BME280;8772;42.804;23.426;2023-06-26T05:54:43;72480.59;;;-140.58;97.04
17309;BME280;8772;42.804;23.426;2023-06-26T05:57:12;72476.47;;;-140.58;96.74
17309;BME280;8772;42.804;23.426;2023-06-26T05:59:40;72472.38;;;-140.58;97.65
17309;BME280;8772;42.804;23.426;2023-06-26T06:02:07;72468.28;;;-140.58;95.98
17309;BME280;8772;42.804;23.426;2023-06-26T06:04:34;72460.06;;;-140.58;95.68
17309;BME280;8772;42.804;23.426;2023-06-26T06:07:03;72451.88;;;-140.58;94.42
17309;BME280;8772;42.804;23.426;2023-06-26T06:09:30;72441.63;;;-140.58;94.70
17309;BME280;8772;42.804;23.426;2023-06-26T06:11:56;72431.38;;;-140.58;95.37
17309;BME280;8772;42.804;23.426;2023-06-26T06:14:25;72431.38;;;-140.58;94.79
17309;BME280;8772;42.804;23.426;2023-06-26T06:16:51;72419.06;;;-140.58;92.74
17309;BME280;8772;42.804;23.426;2023-06-26T06:19:18;72410.84;;;-140.58;93.01
17309;BME280;8772;42.804;23.426;2023-06-26T06:21:45;72406.75;;;-140.58;94.50
17309;BME280;8772;42.804;23.426;2023-06-26T06:24:12;72386.25;;;-140.58;91.44
17309;BME280;8772;42.804;23.426;2023-06-26T06:26:39;72373.94;;;-140.58;91.74
17309;BME280;8772;42.804;23.426;2023-06-26T06:29:06;72359.59;;;-140.58;93.01
17309;BME280;8772;42.804;23.426;2023-06-26T06:31:34;72353.44;;;-140.58;93.19
17309;BME280;8772;42.804;23.426;2023-06-26T06:34:01;72349.34;;;-140.58;89.00
17309;BME280;8772;42.804;23.426;2023-06-26T06:36:28;72335.00;;;-140.58;88.26
17309;BME280;8772;42.804;23.426;2023-06-26T06:38:55;72320.63;;;-140.58;88.07
17309;BME280;8772;42.804;23.426;2023-06-26T06:41:21;72316.53;;;-140.58;89.00
17309;BME280;8772;42.804;23.426;2023-06-26T06:43:48;72304.22;;;-140.58;81.05
17309;BME280;8772;42.804;23.426;2023-06-26T06:46:15;72300.13;;;-140.58;81.90
17309;BME280;8772;42.804;23.426;2023-06-26T06:48:43;72285.78;;;-140.58;84.24
17309;BME280;8772;42.804;23.426;2023-06-26T06:51:12;72279.63;;;-140.58;81.27
17309;BME280;8772;42.804;23.426;2023-06-26T06:53:39;72267.31;;;-140.58;79.43
17309;BME280;8772;42.804;23.426;2023-06-26T06:56:05;72246.81;;;-140.58;75.64
17309;BME280;8772;42.804;23.426;2023-06-26T06:58:32;72246.81;;;-140.58;73.69
17309;BME280;8772;42.804;23.426;2023-06-26T07:01:01;72234.50;;;-140.58;77.20
17309;BME280;8772;42.804;23.426;2023-06-26T07:03:29;72230.41;;;-140.58;73.63
17309;BME280;8772;42.804;23.426;2023-06-26T07:05:58;72214.00;;;-140.58;78.74
17309;BME280;8772;42.804;23.426;2023-06-26T07:08:25;72197.59;;;-140.58;80.40
17309;BME280;8772;42.804;23.426;2023-06-26T07:10:51;72181.19;;;-140.58;75.91
17309;BME280;8772;42.804;23.426;2023-06-26T07:13:18;72166.84;;;-140.58;74.82
17309;BME280;8772;42.804;23.426;2023-06-26T07:15:45;72152.50;;;-140.58;77.83
17309;BME280;8772;42.804;23.426;2023-06-26T07:18:13;72129.94;;;-140.58;73.56
17309;BME280;8772;42.804;23.426;2023-06-26T07:20:40;72115.59;;;-140.58;69.90
17309;BME280;8772;42.804;23.426;2023-06-26T07:23:08;72103.28;;;-140.58;69.60
17309;BME280;8772;42.804;23.426;2023-06-26T07:25:35;72105.34;;;-140.58;72.40
17309;BME280;8772;42.804;23.426;2023-06-26T07:28:02;72099.19;;;-140.58;68.91
17309;BME280;8772;42.804;23.426;2023-06-26T07:30:29;72103.28;;;-140.58;69.57
17309;BME280;8772;42.804;23.426;2023-06-26T07:32:56;72107.38;;;-140.58;69.63
17309;BME280;8772;42.804;23.426;2023-06-26T07:35:23;72103.28;;;-140.58;69.54
17309;BME280;8772;42.804;23.426;2023-06-26T07:37:52;72107.38;;;-140.58;72.61
17309;BME280;8772;42.804;23.426;2023-06-26T07:40:21;72101.22;;;-140.58;75.18
17309;BME280;8772;42.804;23.426;2023-06-26T07:42:48;72082.78;;;-140.58;74.17
17309;BME280;8772;42.804;23.426;2023-06-26T07:45:15;72080.72;;;-140.58;72.75
17309;BME280;8772;42.804;23.426;2023-06-26T07:47:42;72052.03;;;-140.58;71.53
17309;BME280;8772;42.804;23.426;2023-06-26T07:50:09;72037.66;;;-140.58;71.18
17309;BME280;8772;42.804;23.426;2023-06-26T07:52:36;72029.47;;;-140.58;72.06
17309;BME280;8772;42.804;23.426;2023-06-26T07:55:04;72011.00;;;-140.58;71.33
17309;BME280;8772;42.804;23.426;2023-06-26T07:57:32;72021.25;;;-140.58;65.98
17309;BME280;8772;42.804;23.426;2023-06-26T07:59:59;72011.00;;;-140.58;68.46
17309;BME280;8772;42.804;23.426;2023-06-26T08:02:26;72029.47;;;-140.58;64.24
17309;BME280;8772;42.804;23.426;2023-06-26T08:04:53;72033.56;;;-140.58;65.40
17309;BME280;8772;42.804;23.426;2023-06-26T08:07:19;72019.22;;;-140.58;67.75
17309;BME280;8772;42.804;23.426;2023-06-26T08:09:46;71998.72;;;-140.58;65.78
17309;BME280;8772;42.804;23.426;2023-06-26T08:12:13;71984.34;;;-140.58;69.25
17309;BME280;8772;42.804;23.426;2023-06-26T08:14:41;71967.97;;;-140.58;68.28
17309;BME280;8772;42.804;23.426;2023-06-26T08:17:08;71957.69;;;-140.58;64.07
17309;BME280;8772;42.804;23.426;2023-06-26T08:19:35;71939.25;;;-140.58;66.72
17309;BME280;8772;42.804;23.426;2023-06-26T08:22:02;71926.94;;;-140.58;65.01
17309;BME280;8772;42.804;23.426;2023-06-26T08:24:29;71922.84;;;-140.58;62.10
17309;BME280;8772;42.804;23.426;2023-06-26T08:26:56;71941.31;;;-140.58;62.76
17309;BME280;8772;42.804;23.426;2023-06-26T08:29:24;71939.25;;;-140.58;61.66
17309;BME280;8772;42.804;23.426;2023-06-26T08:31:52;71931.06;;;-140.58;62.21
17309;BME280;8772;42.804;23.426;2023-06-26T08:34:19;71914.66;;;-140.58;63.43
17309;BME280;8772;42.804;23.426;2023-06-26T08:36:46;71916.69;;;-140.58;61.79
17309;BME280;8772;42.804;23.426;2023-06-26T08:39:13;71920.78;;;-140.58;61.50
17309;BME280;8772;42.804;23.426;2023-06-26T08:41:39;71922.84;;;-140.58;61.49
17309;BME280;8772;42.804;23.426;2023-06-26T08:44:07;71920.78;;;-140.58;60.70
17309;BME280;8772;42.804;23.426;2023-06-26T08:46:35;71926.94;;;-140.58;60.07
17309;BME280;8772;42.804;23.426;2023-06-26T08:49:09;71910.53;;;-140.58;62.23
17309;BME280;8772;42.804;23.426;2023-06-26T08:51:43;71871.59;;;-140.58;63.54
17309;BME280;8772;42.804;23.426;2023-06-26T08:54:14;71844.94;;;-140.58;59.89
17309;BME280;8772;42.804;23.426;2023-06-26T08:56:44;71816.22;;;-140.58;59.03
17309;BME280;8772;42.804;23.426;2023-06-26T08:59:14;71781.38;;;-140.58;57.84
17309;BME280;8772;42.804;23.426;2023-06-26T09:01:41;71754.72;;;-140.58;58.59
17309;BME280;8772;42.804;23.426;2023-06-26T09:04:09;71738.31;;;-140.58;53.74
17309;BME280;8772;42.804;23.426;2023-06-26T09:06:36;71734.22;;;-140.58;54.30
17309;BME280;8772;42.804;23.426;2023-06-26T09:09:05;71734.22;;;-140.58;54.92
17309;BME280;8772;42.804;23.426;2023-06-26T09:11:33;71721.91;;;-140.58;52.79
17309;BME280;8772;42.804;23.426;2023-06-26T09:14:00;71693.22;;;-140.58;55.76
17309;BME280;8772;42.804;23.426;2023-06-26T09:16:30;71685.03;;;-140.58;56.00
17309;BME280;8772;42.804;23.426;2023-06-26T09:18:57;71648.13;;;-140.58;55.15
17309;BME280;8772;42.804;23.426;2023-06-26T09:21:25;71619.41;;;-140.58;53.38
17309;BME280;8772;42.804;23.426;2023-06-26T09:23:52;71594.81;;;-140.58;53.87
17309;BME280;8772;42.804;23.426;2023-06-26T09:26:21;71592.75;;;-140.58;52.21
17309;BME280;8772;42.804;23.426;2023-06-26T09:28:48;71584.56;;;-140.58;51.69
17309;BME280;8772;42.804;23.426;2023-06-26T09:31:16;71582.50;;;-140.58;51.24
17309;BME280;8772;42.804;23.426;2023-06-26T09:33:46;71582.50;;;-140.58;50.76
17309;BME280;8772;42.804;23.426;2023-06-26T09:36:19;71555.88;;;-140.58;51.56
17309;BME280;8772;42.804;23.426;2023-06-26T09:38:48;71545.63;;;-140.58;51.87
17309;BME280;8772;42.804;23.426;2023-06-26T09:41:16;71545.63;;;-140.58;50.15
17309;BME280;8772;42.804;23.426;2023-06-26T09:43:46;71549.72;;;-140.58;48.44
17309;BME280;8772;42.804;23.426;2023-06-26T09:46:15;71555.88;;;-140.58;50.15
17309;BME280;8772;42.804;23.426;2023-06-26T09:48:42;71566.13;;;-140.58;48.27
17309;BME280;8772;42.804;23.426;2023-06-26T09:51:09;71582.50;;;-140.58;49.82
17309;BME280;8772;42.804;23.426;2023-06-26T09:53:36;71590.72;;;-140.58;50.12
17309;BME280;8772;42.804;23.426;2023-06-26T09:56:07;71607.13;;;-140.58;51.19
17309;BME280;8772;42.804;23.426;2023-06-26T09:58:36;71603.00;;;-140.58;51.75
17309;BME280;8772;42.804;23.426;2023-06-26T10:01:04;71586.63;;;-140.58;52.39
17309;BME280;8772;42.804;23.426;2023-06-26T10:03:32;71582.50;;;-140.58;51.65
17309;BME280;8772;42.804;23.426;2023-06-26T10:06:00;71551.75;;;-140.58;51.27
17309;BME280;8772;42.804;23.426;2023-06-26T10:08:28;71555.88;;;-140.58;51.39
17309;BME280;8772;42.804;23.426;2023-06-26T10:10:56;71564.06;;;-140.58;48.62
17309;BME280;8772;42.804;23.426;2023-06-26T10:13:31;71603.00;;;-140.58;49.07
17309;BME280;8772;42.804;23.426;2023-06-26T10:15:59;71605.06;;;-140.58;51.35
17309;BME280;8772;42.804;23.426;2023-06-26T10:18:27;71621.47;;;-140.58;50.60
17309;BME280;8772;42.804;23.426;2023-06-26T10:20:59;71635.81;;;-140.58;50.69
17309;BME280;8772;42.804;23.426;2023-06-26T10:23:30;71658.38;;;-140.58;52.25
17309;BME280;8772;42.804;23.426;2023-06-26T10:25:59;71689.13;;;-140.58;52.27
17309;BME280;8772;42.804;23.426;2023-06-26T10:28:29;71701.41;;;-140.58;53.28
17309;BME280;8772;42.804;23.426;2023-06-26T10:30:58;71721.91;;;-140.58;53.90
17309;BME280;8772;42.804;23.426;2023-06-26T10:33:25;71748.56;;;-140.58;53.97
17309;BME280;8772;42.804;23.426;2023-06-26T10:35:52;71754.72;;;-140.58;55.06
17309;BME280;8772;42.804;23.426;2023-06-26T10:38:19;71760.88;;;-140.58;54.34
17309;BME280;8772;42.804;23.426;2023-06-26T10:40:47;71758.81;;;-140.58;55.49
17309;BME280;8772;42.804;23.426;2023-06-26T10:43:16;71775.22;;;-140.58;55.44
17309;BME280;8772;42.804;23.426;2023-06-26T10:45:46;71795.72;;;-140.58;56.99
17309;BME280;8772;42.804;23.426;2023-06-26T10:48:17;71791.63;;;-140.58;55.96
17309;BME280;8772;42.804;23.426;2023-06-26T10:50:47;71791.63;;;-140.58;56.66
17309;BME280;8772;42.804;23.426;2023-06-26T10:53:16;71803.94;;;-140.58;57.84
17309;BME280;8772;42.804;23.426;2023-06-26T10:55:55;71816.22;;;-140.58;57.63
17309;BME280;8772;42.804;23.426;2023-06-26T10:58:33;71842.88;;;-140.58;57.10
17309;BME280;8772;42.804;23.426;2023-06-26T11:01:21;71869.53;;;-140.58;58.53
17309;BME280;8772;42.804;23.426;2023-06-26T11:03:49;71873.63;;;-140.58;60.61
17309;BME280;8772;42.804;23.426;2023-06-26T11:06:18;71879.78;;;-140.58;60.43
17309;BME280;8772;42.804;23.426;2023-06-26T11:08:46;71894.16;;;-140.58;61.51
17309;BME280;8772;42.804;23.426;2023-06-26T11:11:13;71885.94;;;-140.58;61.00
17309;BME280;8772;42.804;23.426;2023-06-26T11:13:41;71881.84;;;-140.58;61.62
17309;BME280;8772;42.804;23.426;2023-06-26T11:16:08;71873.63;;;-140.58;61.26
17309;BME280;8772;42.804;23.426;2023-06-26T11:18:38;71857.25;;;-140.58;62.40
17309;BME280;8772;42.804;23.426;2023-06-26T11:21:06;71834.69;;;-140.58;63.84
17309;BME280;8772;42.804;23.426;2023-06-26T11:23:35;71814.19;;;-140.58;62.42
17309;BME280;8772;42.804;23.426;2023-06-26T11:26:15;71805.97;;;-140.58;58.11
17309;BME280;8772;42.804;23.426;2023-06-26T11:28:49;71801.88;;;-140.58;58.34
17309;BME280;8772;42.804;23.426;2023-06-26T11:31:26;71791.63;;;-140.58;57.02
17309;BME280;8772;42.804;23.426;2023-06-26T11:33:54;71783.44;;;-140.58;57.71
17309;BME280;8772;42.804;23.426;2023-06-26T11:36:23;71754.72;;;-140.58;60.45
17309;BME280;8772;42.804;23.426;2023-06-26T11:38:53;71732.16;;;-140.58;57.62
17309;BME280;8772;42.804;23.426;2023-06-26T11:41:21;71685.03;;;-140.58;59.29
17309;BME280;8772;42.804;23.426;2023-06-26T11:43:48;71668.63;;;-140.58;56.03
17309;BME280;8772;42.804;23.426;2023-06-26T11:46:16;71652.22;;;-140.58;56.41
17309;BME280;8772;42.804;23.426;2023-06-26T11:48:43;71621.47;;;-140.58;58.87
17309;BME280;8772;42.804;23.426;2023-06-26T11:51:14;71586.63;;;-140.58;57.70
17309;BME280;8772;42.804;23.426;2023-06-26T11:53:41;71564.06;;;-140.58;52.98
17309;BME280;8772;42.804;23.426;2023-06-26T11:56:09;71572.25;;;-140.58;51.52
17309;BME280;8772;42.804;23.426;2023-06-26T11:58:36;71535.38;;;-140.58;52.96
17309;BME280;8772;42.804;23.426;2023-06-26T12:01:03;71510.75;;;-140.58;53.88
17309;BME280;8772;42.804;23.426;2023-06-26T12:03:32;71480.00;;;-140.58;50.29
17309;BME280;8772;42.804;23.426;2023-06-26T12:05:59;71475.91;;;-140.58;48.06
17309;BME280;8772;42.804;23.426;2023-06-26T12:08:32;71484.09;;;-140.58;50.25
17309;BME280;8772;42.804;23.426;2023-06-26T12:11:00;71480.00;;;-140.58;46.60
17309;BME280;8772;42.804;23.426;2023-06-26T12:13:29;71457.47;;;-140.58;46.99
17309;BME280;8772;42.804;23.426;2023-06-26T12:15:57;71443.09;;;-140.58;46.76
17309;BME280;8772;42.804;23.426;2023-06-26T12:18:24;71484.09;;;-140.58;47.33
17309;BME280;8772;42.804;23.426;2023-06-26T12:20:52;71467.72;;;-140.58;46.96
17309;BME280;8772;42.804;23.426;2023-06-26T12:23:19;71471.81;;;-140.58;46.27
17309;BME280;8772;42.804;23.426;2023-06-26T12:25:47;71480.00;;;-140.58;46.05
17309;BME280;8772;42.804;23.426;2023-06-26T12:28:17;71484.09;;;-140.58;47.21
17309;BME280;8772;42.804;23.426;2023-06-26T12:30:47;71521.00;;;-140.58;44.58
17309;BME280;8772;42.804;23.426;2023-06-26T12:33:14;71557.91;;;-140.58;46.82
17309;BME280;8772;42.804;23.426;2023-06-26T12:35:42;71566.13;;;-140.58;49.93
17309;BME280;8772;42.804;23.426;2023-06-26T12:38:09;71570.22;;;-140.58;52.72
17309;BME280;8772;42.804;23.426;2023-06-26T12:40:44;71603.00;;;-140.58;53.64
17309;BME280;8772;42.804;23.426;2023-06-26T12:43:22;71656.31;;;-140.58;55.75
17309;BME280;8772;42.804;23.426;2023-06-26T12:45:54;71689.13;;;-140.58;56.53
17309;BME280;8772;42.804;23.426;2023-06-26T12:48:21;71689.13;;;-140.58;58.27
17309;BME280;8772;42.804;23.426;2023-06-26T12:50:47;71742.44;;;-140.58;56.84
17309;BME280;8772;42.804;23.426;2023-06-26T12:53:16;71762.94;;;-140.58;56.67
17309;BME280;8772;42.804;23.426;2023-06-26T12:55:42;71750.63;;;-140.58;59.74
17309;BME280;8772;42.804;23.426;2023-06-26T12:58:09;71732.16;;;-140.58;61.25